createdAt,value
2018-04-28T00:01:44.728Z,3.83
2018-04-28T00:04:12.649Z,4.27
2018-04-28T00:06:40.602Z,4.13
2018-04-28T00:09:08.546Z,4.40
2018-04-28T00:11:38.204Z,3.53
2018-04-28T00:14:06.120Z,4.00
2018-04-28T00:16:45.899Z,3.53
2018-04-28T00:19:13.816Z,4.00
2018-04-28T00:21:48.445Z,4.30
2018-04-28T00:24:17.799Z,3.60
2018-04-28T00:26:46.634Z,3.70
2018-04-28T00:29:15.402Z,3.80
2018-04-28T00:31:53.246Z,4.50
2018-04-28T00:34:22.111Z,3.93
2018-04-28T00:36:52.963Z,4.83
2018-04-28T00:39:21.061Z,4.20
2018-04-28T00:41:49.949Z,4.20
2018-04-28T00:44:17.865Z,4.80
2018-04-28T00:46:49.162Z,4.60
2018-04-28T00:49:17.087Z,5.00
2018-04-28T00:51:48.819Z,6.63
2018-04-28T00:54:23.428Z,5.20
2018-04-28T00:56:58.033Z,4.57
2018-04-28T00:59:26.919Z,4.53
2018-04-28T01:01:56.570Z,4.20
2018-04-28T01:04:41.032Z,4.70
2018-04-28T01:07:12.565Z,4.43
2018-04-28T01:09:41.440Z,4.47
2018-04-28T01:12:11.031Z,4.43
2018-04-28T01:14:39.902Z,4.20
2018-04-28T01:17:24.396Z,3.90
2018-04-28T01:19:54.238Z,3.50
2018-04-28T01:22:23.950Z,4.07
2018-04-28T01:24:52.888Z,4.90
2018-04-28T01:27:27.543Z,3.90
2018-04-28T01:30:11.293Z,4.17
2018-04-28T01:35:58.041Z,5.13
2018-04-28T01:38:28.597Z,4.17
2018-04-28T01:41:17.289Z,4.07
2018-04-28T01:43:56.064Z,4.97
2018-04-28T01:46:27.748Z,4.90
2018-04-28T01:48:56.621Z,4.10
2018-04-28T01:51:28.416Z,4.10
2018-04-28T01:53:58.092Z,4.50
2018-04-28T01:56:26.912Z,4.90
2018-04-28T01:58:57.539Z,4.67
2018-04-28T02:01:28.195Z,4.70
2018-04-28T02:04:11.935Z,5.10
2018-04-28T02:06:41.511Z,4.87
2018-04-28T02:09:11.270Z,4.60
2018-04-28T02:11:40.612Z,4.80
2018-04-28T02:14:25.363Z,4.33
2018-04-28T02:16:55.034Z,5.00
2018-04-28T02:19:27.737Z,4.83
2018-04-28T02:22:02.553Z,4.70
2018-04-28T02:24:37.371Z,4.70
2018-04-28T02:27:06.268Z,4.80
2018-04-28T02:29:36.792Z,4.73
2018-04-28T02:32:07.516Z,4.57
2018-04-28T02:34:37.217Z,5.30
2018-04-28T02:37:11.952Z,5.23
2018-04-28T02:39:40.809Z,5.57
2018-04-28T02:42:11.485Z,4.77
2018-04-28T02:44:40.362Z,4.73
2018-04-28T02:47:12.026Z,5.17
2018-04-28T02:49:41.692Z,4.90
2018-04-28T02:52:16.442Z,5.00
2018-04-28T02:54:49.157Z,3.90
2018-04-28T02:57:22.850Z,4.87
2018-04-28T02:59:52.576Z,4.60
2018-04-28T03:02:22.341Z,5.07
2018-04-28T03:05:09.001Z,4.53
2018-04-28T03:07:37.868Z,4.50
2018-04-28T03:10:06.734Z,5.30
2018-04-28T03:12:35.601Z,4.40
2018-04-28T03:15:06.264Z,4.83
2018-04-28T03:17:38.626Z,4.30
2018-04-28T03:20:07.510Z,4.90
2018-04-28T03:22:35.413Z,4.30
2018-04-28T03:25:07.022Z,4.53
2018-04-28T03:28:09.435Z,4.40
2018-04-28T03:30:38.177Z,4.30
2018-04-28T03:33:08.821Z,3.97
2018-04-28T03:35:53.289Z,5.13
2018-04-28T03:38:26.708Z,4.60
2018-04-28T03:40:54.663Z,5.40
2018-04-28T03:46:26.053Z,4.90
2018-04-28T03:49:14.638Z,4.27
2018-04-28T03:54:42.406Z,4.17
2018-04-28T04:00:15.142Z,4.10
2018-04-28T04:02:54.934Z,4.50
2018-04-28T04:05:43.346Z,4.30
2018-04-28T04:08:21.782Z,4.20
2018-04-28T04:17:27.676Z,4.73
2018-04-28T04:20:14.413Z,4.90
2018-04-28T04:22:48.949Z,4.23
2018-04-28T04:25:38.330Z,4.60
2018-04-28T04:28:07.896Z,4.50
2018-04-28T04:30:39.642Z,4.20
2018-04-28T04:33:09.061Z,4.13
2018-04-28T04:35:43.724Z,3.90
2018-04-28T04:38:18.361Z,3.53
2018-04-28T04:40:52.800Z,3.80
2018-04-28T04:46:52.136Z,3.57
2018-04-28T04:49:27.637Z,3.67
2018-04-28T04:52:16.957Z,4.03
2018-04-28T04:54:46.777Z,4.37
2018-04-28T05:00:33.144Z,3.63
2018-04-28T05:03:08.676Z,3.33
2018-04-28T05:05:48.294Z,4.10
2018-04-28T05:11:20.943Z,3.90
2018-04-28T05:13:56.441Z,3.80
2018-04-28T05:16:27.175Z,3.97
2018-04-28T05:19:06.008Z,4.00
2018-04-28T05:21:36.665Z,3.20
2018-04-28T05:27:19.455Z,3.60
2018-04-28T05:30:08.031Z,3.70
2018-04-28T05:32:52.326Z,4.20
2018-04-28T05:35:23.998Z,4.53
2018-04-28T05:37:57.747Z,3.87
2018-04-28T05:43:43.597Z,3.27
2018-04-28T05:46:34.271Z,3.70
2018-04-28T05:49:13.921Z,3.93
2018-04-28T05:54:49.723Z,4.00
2018-04-28T05:57:43.463Z,3.83
2018-04-28T06:00:18.877Z,4.30
2018-04-28T06:02:54.506Z,3.97
2018-04-28T06:08:39.898Z,3.60
2018-04-28T06:11:25.197Z,3.33
2018-04-28T06:13:58.894Z,3.07
2018-04-28T06:16:38.784Z,3.13
2018-04-28T06:19:20.298Z,3.80
2018-04-28T06:21:48.235Z,3.80
2018-04-28T06:24:17.106Z,3.90
2018-04-28T06:26:45.019Z,2.93
2018-04-28T06:29:12.928Z,2.97
2018-04-28T06:31:40.844Z,3.27
2018-04-28T06:34:08.781Z,3.00
2018-04-28T06:36:36.686Z,2.97
2018-04-28T06:39:05.549Z,3.10
2018-04-28T06:41:33.469Z,3.17
2018-04-28T06:44:01.374Z,3.63
2018-04-28T06:46:29.318Z,3.03
2018-04-28T06:48:57.220Z,3.03
2018-04-28T06:51:25.243Z,2.70
2018-04-28T06:53:53.189Z,3.67
2018-04-28T06:56:21.093Z,2.97
2018-04-28T06:58:49.038Z,3.40
2018-04-28T07:01:16.942Z,3.23
2018-04-28T07:03:44.865Z,3.50
2018-04-28T07:06:12.784Z,3.20
2018-04-28T07:08:40.702Z,3.40
2018-04-28T07:11:08.642Z,3.80
2018-04-28T07:13:36.608Z,3.40
2018-04-28T07:16:04.796Z,3.97
2018-04-28T07:18:33.698Z,3.47
2018-04-28T07:21:02.650Z,3.73
2018-04-28T07:23:30.519Z,3.80
2018-04-28T07:25:58.427Z,3.80
2018-04-28T07:28:26.329Z,3.10
2018-04-28T07:30:54.246Z,3.00
2018-04-28T07:33:22.157Z,4.07
2018-04-28T07:35:50.109Z,2.73
2018-04-28T07:38:18.031Z,3.40
2018-04-28T07:40:46.143Z,3.10
2018-04-28T07:43:14.109Z,3.60
2018-04-28T07:45:42.031Z,3.90
2018-04-28T07:48:09.960Z,4.03
2018-04-28T07:50:37.892Z,3.40
2018-04-28T07:53:05.823Z,3.50
2018-04-28T07:55:33.755Z,7.17
2018-04-28T07:58:02.380Z,4.23
2018-04-28T08:00:30.324Z,3.23
2018-04-28T08:02:58.937Z,3.03
2018-04-28T08:05:26.871Z,3.60
2018-04-28T08:07:54.922Z,3.63
2018-04-28T08:10:22.857Z,3.63
2018-04-28T08:12:53.605Z,3.30
2018-04-28T08:15:21.575Z,3.30
2018-04-28T08:17:49.487Z,3.33
2018-04-28T08:20:17.407Z,3.43
2018-04-28T08:22:45.323Z,3.50
2018-04-28T08:25:13.249Z,3.67
2018-04-28T08:27:41.178Z,3.90
2018-04-28T08:30:09.088Z,2.93
2018-04-28T08:32:37.042Z,3.13
2018-04-28T08:35:04.959Z,3.33
2018-04-28T08:37:32.964Z,2.87
2018-04-28T08:40:00.959Z,2.73
2018-04-28T08:42:28.889Z,3.47
2018-04-28T08:44:56.809Z,3.40
2018-04-28T08:47:24.733Z,2.77
2018-04-28T08:49:52.672Z,3.73
2018-04-28T08:52:20.577Z,2.90
2018-04-28T08:54:48.506Z,3.23
2018-04-28T08:57:17.093Z,2.87
2018-04-28T08:59:56.872Z,3.07
2018-04-28T09:02:24.806Z,3.10
2018-04-28T09:04:52.712Z,3.60
2018-04-28T09:07:38.294Z,3.40
2018-04-28T09:10:06.215Z,3.30
2018-04-28T09:12:34.126Z,3.67
2018-04-28T09:15:02.053Z,4.27
2018-04-28T09:17:29.975Z,3.57
2018-04-28T09:19:57.913Z,4.00
2018-04-28T09:22:25.812Z,3.67
2018-04-28T09:24:53.719Z,4.40
2018-04-28T09:27:21.641Z,4.60
2018-04-28T09:29:50.507Z,4.00
2018-04-28T09:32:18.470Z,5.53
2018-04-28T09:34:46.387Z,4.13
2018-04-28T09:37:14.313Z,3.50
2018-04-28T09:39:42.234Z,3.63
2018-04-28T09:42:10.136Z,4.03
2018-04-28T09:44:38.054Z,4.40
2018-04-28T09:47:05.963Z,5.27
2018-04-28T09:49:33.894Z,4.40
2018-04-28T09:52:01.830Z,4.00
2018-04-28T09:54:29.740Z,4.90
2018-04-28T09:56:57.692Z,4.07
2018-04-28T09:59:25.596Z,4.13
2018-04-28T10:01:58.504Z,4.13
2018-04-28T10:04:26.993Z,4.60
2018-04-28T10:06:54.909Z,5.13
2018-04-28T10:09:23.044Z,4.93
2018-04-28T10:11:50.976Z,4.90
2018-04-28T10:14:19.002Z,4.80
2018-04-28T10:16:46.908Z,4.80
2018-04-28T10:19:14.834Z,5.57
2018-04-28T10:21:42.760Z,4.63
2018-04-28T10:24:12.354Z,4.57
2018-04-28T10:26:40.410Z,5.00
2018-04-28T10:34:56.917Z,5.90
2018-04-28T10:37:24.848Z,4.53
2018-04-28T10:39:52.752Z,5.43
2018-04-28T10:42:20.649Z,4.27
2018-04-28T10:44:49.155Z,4.33
2018-04-28T10:47:17.082Z,4.47
2018-04-28T10:49:45.011Z,4.40
2018-04-28T10:52:12.908Z,5.80
2018-04-28T10:54:40.831Z,5.77
2018-04-28T10:57:15.401Z,5.27
2018-04-28T10:59:43.307Z,5.17
2018-04-28T11:02:11.246Z,4.23
2018-04-28T11:04:39.747Z,4.47
2018-04-28T11:07:07.666Z,4.87
2018-04-28T11:09:36.541Z,4.53
2018-04-28T11:12:04.493Z,4.37
2018-04-28T11:14:32.413Z,3.73
2018-04-28T11:17:00.333Z,3.83
2018-04-28T11:19:28.241Z,3.40
2018-04-28T11:21:56.165Z,3.13
2018-04-28T11:24:24.080Z,3.30
2018-04-28T11:26:52.024Z,4.07
2018-04-28T11:29:19.936Z,3.40
2018-04-28T11:31:47.843Z,3.30
2018-04-28T11:34:15.770Z,3.67
2018-04-28T11:36:43.682Z,3.50
2018-04-28T11:39:21.603Z,3.47
2018-04-28T11:41:49.505Z,3.10
2018-04-28T11:44:17.431Z,3.97
2018-04-28T11:46:46.295Z,3.27
2018-04-28T11:49:14.194Z,3.13
2018-04-28T11:51:42.272Z,3.87
2018-04-28T11:54:10.194Z,3.10
2018-04-28T11:56:38.098Z,3.40
2018-04-28T11:59:06.982Z,3.30
2018-04-28T12:01:34.965Z,3.37
2018-04-28T12:04:02.920Z,3.80
2018-04-28T12:06:30.824Z,4.03
2018-04-28T12:08:58.731Z,3.80
2018-04-28T12:14:28.217Z,3.70
2018-04-28T12:16:56.136Z,3.40
2018-04-28T12:19:24.048Z,4.53
2018-04-28T12:24:48.036Z,4.40
2018-04-28T12:27:15.970Z,3.70
2018-04-28T12:29:44.821Z,3.70
2018-04-28T12:32:12.731Z,4.57
2018-04-28T12:34:40.646Z,4.10
2018-04-28T12:37:08.569Z,4.30
2018-04-28T12:39:36.504Z,3.90
2018-04-28T12:42:04.423Z,4.37
2018-04-28T12:44:32.345Z,3.50
2018-04-28T12:47:00.457Z,4.17
2018-04-28T12:49:28.357Z,4.10
2018-04-28T12:51:56.288Z,4.23
2018-04-28T12:54:24.745Z,3.93
2018-04-28T12:56:52.681Z,4.40
2018-04-28T12:59:20.613Z,4.30
2018-04-28T13:01:48.538Z,3.33
2018-04-28T13:04:16.466Z,3.90
2018-04-28T13:06:47.366Z,3.30
2018-04-28T13:12:06.787Z,3.77
2018-04-28T13:14:35.114Z,3.50
2018-04-28T13:17:03.025Z,3.03
2018-04-28T13:19:30.954Z,3.80
2018-04-28T13:21:58.876Z,3.30
2018-04-28T13:24:26.805Z,2.93
2018-04-28T13:26:55.767Z,3.30
2018-04-28T13:29:23.624Z,3.47
2018-04-28T13:31:51.544Z,4.20
2018-04-28T13:34:19.456Z,3.50
2018-04-28T13:36:47.390Z,3.43
2018-04-28T13:39:15.709Z,3.70
2018-04-28T13:41:43.708Z,3.03
2018-04-28T13:44:11.646Z,3.40
2018-04-28T13:46:39.570Z,3.50
2018-04-28T13:49:07.646Z,3.40
2018-04-28T13:51:36.375Z,3.00
2018-04-28T13:54:04.279Z,3.37
2018-04-28T13:56:32.218Z,3.20
2018-04-28T13:59:00.824Z,3.23
2018-04-28T14:01:28.749Z,2.97
2018-04-28T14:03:56.661Z,2.50
2018-04-28T14:06:34.659Z,2.77
2018-04-28T14:09:05.055Z,2.50
2018-04-28T14:11:33.066Z,2.30
2018-04-28T14:14:01.025Z,2.60
2018-04-28T14:16:28.926Z,2.73
2018-04-28T14:18:56.828Z,2.90
2018-04-28T14:21:36.436Z,3.30
2018-04-28T14:24:04.568Z,2.80
2018-04-28T14:26:32.492Z,2.97
2018-04-28T14:29:00.442Z,2.60
2018-04-28T14:31:28.351Z,2.50
2018-04-28T14:33:56.257Z,2.57
2018-04-28T14:40:02.232Z,3.77
2018-04-28T14:42:38.878Z,3.00
2018-04-28T14:45:06.799Z,3.13
2018-04-28T14:47:34.718Z,3.47
2018-04-28T14:50:02.672Z,3.23
2018-04-28T14:52:30.581Z,3.07
2018-04-28T14:58:47.893Z,3.10
2018-04-28T15:01:15.848Z,2.70
2018-04-28T15:03:43.766Z,2.50
2018-04-28T15:06:11.718Z,3.07
2018-04-28T15:08:39.669Z,2.27
2018-04-28T15:11:07.607Z,2.87
2018-04-28T15:13:35.543Z,4.00
2018-04-28T15:16:03.507Z,2.83
2018-04-28T15:18:31.643Z,3.03
2018-04-28T15:20:59.564Z,3.00
2018-04-28T15:23:27.738Z,3.37
2018-04-28T15:25:55.657Z,2.90
2018-04-28T15:28:23.600Z,2.73
2018-04-28T15:30:51.558Z,2.60
2018-04-28T15:33:19.465Z,3.10
2018-04-28T15:35:48.372Z,2.57
2018-04-28T15:38:16.299Z,3.10
2018-04-28T15:40:44.283Z,2.23
2018-04-28T15:43:12.274Z,2.80
2018-04-28T15:45:40.220Z,2.03
2018-04-28T15:48:08.146Z,2.30
2018-04-28T15:50:36.065Z,2.30
2018-04-28T15:53:04.716Z,1.90
2018-04-28T15:55:32.615Z,2.20
2018-04-28T15:58:00.549Z,1.80
2018-04-28T16:00:28.494Z,2.40
2018-04-28T16:02:57.137Z,2.10
2018-04-28T16:05:25.057Z,2.43
2018-04-28T16:07:53.049Z,2.30
2018-04-28T16:10:21.031Z,1.80
2018-04-28T16:12:48.960Z,1.80
2018-04-28T16:15:16.907Z,1.70
2018-04-28T16:17:44.826Z,1.60
2018-04-28T16:20:13.004Z,2.00
2018-04-28T16:22:41.568Z,1.77
2018-04-28T16:25:09.861Z,2.07
2018-04-28T16:27:38.171Z,1.63
2018-04-28T16:30:06.145Z,2.40
2018-04-28T16:32:34.066Z,1.83
2018-04-28T16:35:04.694Z,2.10
2018-04-28T16:37:35.336Z,2.00
2018-04-28T16:40:03.368Z,1.90
2018-04-28T16:42:31.265Z,2.30
2018-04-28T16:44:59.539Z,1.93
2018-04-28T16:47:27.458Z,2.07
2018-04-28T16:49:55.385Z,2.00
2018-04-28T16:52:23.393Z,2.13
2018-04-28T16:54:51.314Z,2.33
2018-04-28T16:57:19.231Z,2.23
2018-04-28T16:59:47.167Z,1.97
2018-04-28T17:02:15.637Z,2.07
2018-04-28T17:04:43.559Z,2.10
2018-04-28T17:07:12.351Z,2.57
2018-04-28T17:09:40.370Z,2.50
2018-04-28T17:12:08.275Z,2.10
2018-04-28T17:14:36.220Z,2.57
2018-04-28T17:17:04.185Z,3.10
2018-04-28T17:19:32.079Z,3.00
2018-04-28T17:22:00.022Z,3.60
2018-04-28T17:30:07.278Z,3.07
2018-04-28T17:32:35.206Z,8.37
2018-04-28T17:35:03.122Z,8.93
2018-04-28T17:37:32.352Z,5.50
2018-04-28T17:40:00.289Z,4.83
2018-04-28T17:42:28.223Z,4.00
2018-04-28T17:44:56.133Z,4.20
2018-04-28T17:47:24.126Z,3.17
2018-04-28T17:49:52.058Z,2.83
2018-04-28T17:52:20.482Z,3.20
2018-04-28T17:54:48.446Z,3.40
2018-04-28T17:57:16.351Z,2.37
2018-04-28T17:59:45.093Z,2.97
2018-04-28T18:02:13.034Z,2.63
2018-04-28T18:04:40.946Z,3.07
2018-04-28T18:07:10.331Z,3.53
2018-04-28T18:09:39.085Z,2.53
2018-04-28T18:12:07.812Z,2.47
2018-04-28T18:14:36.563Z,2.50
2018-04-28T18:17:05.340Z,2.97
2018-04-28T18:19:33.255Z,2.77
2018-04-28T18:22:01.174Z,2.60
2018-04-28T18:24:29.134Z,2.50
2018-04-28T18:26:57.056Z,3.37
2018-04-28T18:29:25.594Z,3.27
2018-04-28T18:31:53.551Z,2.67
2018-04-28T18:34:21.479Z,2.97
2018-04-28T18:36:49.397Z,2.97
2018-04-28T18:39:17.342Z,3.00
2018-04-28T18:41:45.259Z,2.73
2018-04-28T18:44:13.167Z,2.50
2018-04-28T18:46:41.171Z,3.10
2018-04-28T18:49:09.061Z,2.90
2018-04-28T18:51:36.987Z,3.60
2018-04-28T18:54:06.993Z,2.70
2018-04-28T18:56:35.436Z,3.20
2018-04-28T18:59:03.346Z,3.33
2018-04-28T19:01:31.304Z,3.10
2018-04-28T19:03:59.215Z,3.50
2018-04-28T19:06:27.149Z,3.63
2018-04-28T19:08:55.085Z,3.60
2018-04-28T19:11:23.058Z,4.20
2018-04-28T19:13:51.005Z,3.80
2018-04-28T19:16:18.946Z,3.50
2018-04-28T19:18:46.942Z,4.03
2018-04-28T19:21:14.888Z,3.80
2018-04-28T19:23:43.453Z,4.87
2018-04-28T19:26:11.366Z,4.13
2018-04-28T19:28:39.291Z,3.63
2018-04-28T19:31:07.281Z,3.40
2018-04-28T19:33:35.214Z,3.90
2018-04-28T19:36:03.224Z,3.43
2018-04-28T19:38:31.156Z,4.17
2018-04-28T19:40:59.116Z,4.60
2018-04-28T19:43:27.063Z,5.17
2018-04-28T19:45:55.013Z,5.80
2018-04-28T19:48:22.994Z,5.83
2018-04-28T19:50:50.893Z,5.47
2018-04-28T19:53:18.826Z,6.00
2018-04-28T19:55:46.739Z,5.70
2018-04-28T19:58:14.647Z,4.50
2018-04-28T20:00:42.587Z,5.83
2018-04-28T20:03:10.551Z,5.30
2018-04-28T20:05:38.477Z,6.00
2018-04-28T20:08:06.422Z,4.70
2018-04-28T20:10:34.351Z,4.90
2018-04-28T20:13:02.303Z,5.00
2018-04-28T20:15:30.226Z,4.63
2018-04-28T20:17:58.189Z,6.03
2018-04-28T20:20:26.110Z,4.83
2018-04-28T20:23:05.689Z,4.40
2018-04-28T20:25:33.641Z,4.17
2018-04-28T20:28:01.573Z,4.60
2018-04-28T20:30:29.527Z,4.17
2018-04-28T20:32:57.447Z,4.83
2018-04-28T20:35:25.384Z,6.50
2018-04-28T20:37:53.319Z,7.17
2018-04-28T20:40:21.244Z,7.37
2018-04-28T20:46:11.588Z,6.60
2018-04-28T20:58:20.638Z,4.90
2018-04-28T21:00:48.546Z,4.90
2018-04-28T21:03:17.451Z,5.60
2018-04-28T21:05:45.374Z,4.30
2018-04-28T21:08:13.305Z,4.80
2018-04-28T21:10:42.221Z,4.13
2018-04-28T21:13:10.164Z,5.07
2018-04-28T21:15:38.109Z,4.83
2018-04-28T21:18:06.025Z,5.10
2018-04-28T21:20:33.961Z,5.37
2018-04-28T21:23:01.897Z,5.00
2018-04-28T21:25:29.931Z,5.60
2018-04-28T21:27:57.872Z,5.00
2018-04-28T21:30:25.780Z,5.10
2018-04-28T21:32:53.706Z,4.73
2018-04-28T21:35:21.682Z,6.20
2018-04-28T21:37:49.666Z,5.40
2018-04-28T21:40:18.084Z,4.70
2018-04-28T21:42:46.022Z,5.30
2018-04-28T21:45:13.976Z,4.87
2018-04-28T21:47:42.910Z,5.00
2018-04-28T21:50:10.841Z,5.60
2018-04-28T21:52:38.796Z,6.53
2018-04-28T21:55:06.707Z,5.60
2018-04-28T21:57:34.637Z,6.20
2018-04-28T22:00:02.586Z,16.40
2018-04-28T22:02:30.485Z,6.20
2018-04-28T22:04:58.464Z,6.67
2018-04-28T22:07:26.387Z,6.30
2018-04-28T22:09:54.316Z,5.97
2018-04-28T22:12:22.256Z,6.63
2018-04-28T22:14:50.188Z,6.10
2018-04-28T22:17:18.117Z,6.40
2018-04-28T22:19:46.048Z,6.13
2018-04-28T22:22:13.985Z,6.60
2018-04-28T22:24:41.920Z,5.73
2018-04-28T22:27:09.833Z,5.90
2018-04-28T22:29:37.925Z,5.50
2018-04-28T22:32:05.850Z,6.10
2018-04-28T22:34:34.305Z,5.93
2018-04-28T22:37:02.236Z,5.60
2018-04-28T22:39:30.178Z,6.10
2018-04-28T22:41:58.209Z,6.03
2018-04-28T22:44:26.076Z,5.60
2018-04-28T22:46:54.001Z,6.20
2018-04-28T22:49:22.895Z,6.50
2018-04-28T22:51:50.832Z,6.10
2018-04-28T22:54:18.795Z,5.60
2018-04-28T22:56:46.714Z,6.20
2018-04-28T22:59:14.622Z,6.30
2018-04-28T23:01:42.555Z,6.40
2018-04-28T23:04:10.797Z,6.10
2018-04-28T23:06:38.750Z,7.00
2018-04-28T23:09:06.676Z,6.30
2018-04-28T23:11:34.590Z,6.17
2018-04-28T23:14:02.518Z,5.50
2018-04-28T23:16:30.451Z,6.03
2018-04-28T23:18:59.339Z,5.63
2018-04-28T23:21:34.710Z,5.73
2018-04-28T23:24:02.681Z,6.50
2018-04-28T23:26:30.596Z,5.70
2018-04-28T23:28:59.059Z,6.73
2018-04-28T23:31:26.972Z,6.70
2018-04-28T23:33:54.888Z,6.90
2018-04-28T23:36:22.835Z,6.23
2018-04-28T23:38:50.783Z,5.97
2018-04-28T23:41:18.680Z,7.10
2018-04-28T23:43:46.621Z,7.60
2018-04-28T23:46:14.557Z,6.47
2018-04-28T23:49:05.957Z,6.40
2018-04-28T23:54:15.619Z,6.70
2018-04-28T23:56:50.567Z,8.10
2018-04-28T23:59:19.673Z,7.27
